Nelson, Canada
Current Conditions -  °F | °C
As of 8:00 AM on Friday 31 Oct 2014 (Local Time) from CYCG Reporting Station
Light Rain Light Rain  
Wind Chill: 44°   Ceiling: 1500
Heat Index: 46°   Visibility: 3mi
Dew Point: 46°   Wind: 5mph
Humidity: 100%   Direction: NA
Pressure: 29.74"   Gusts: NA
Location:  49.48°N, 117.28°W
Report Text: CYCG 311500Z VRB04KT 3SM -RA BR FEW003 BKN015 OVC065 08/08 A2974 RMK SF2SC5SC1 VSBY LWR NE-E SLP078
Loading
Personal Weather Stations






























Interactive Weather Map New forecast layout! Learn more

10-Day Weather Forecast

Advertisements
Track Severe Weather on mobile